Terminal Aerodrome Forecast
Issued by NWS

Home | Current Version | Previous Version | Text Only | Print | Product List | Glossary On
Versions: 1 2 3 4 5 6 7 8 9 10 11 12 13 14 15 16 17 18 19 20 21
141
FTUS43 KILX 180523
TAFDEC
TAF
KDEC 180523Z 1806/1906 26006KT P6SM SCT060 SCT250
     FM181300 29006KT P6SM SCT250
     FM182300 23006KT P6SM SCT050 BKN250=

USA.gov is the U.S. government's official web portal to all federal, state and local government web resources and services.